Time;durP1;ratioP1;P1;durP2;ratioP2;P2;SDS_P1;SDS_P2;PMS_P1;PMS_P2;Temp;Humidity;BMP_temperature;BMP_pressure;BME280_temperature;BME280_humidity;BME280_pressure;Samples;Min_cycle;Max_cycle;Signal;HPM_P1;HPM_P2
2023/12/28 00:01:22;;;;;;;1.87;1.77;;;2.70;99.90;;;;;;4985008;28;20503;-79
2023/12/28 00:03:48;;;;;;;2.65;1.23;;;4.30;99.90;;;;;;4986723;28;20211;-83
2023/12/28 00:06:14;;;;;;;2.47;1.20;;;2.90;99.90;;;;;;4979359;28;21768;-84
2023/12/28 00:08:40;;;;;;;1.73;1.60;;;2.90;99.90;;;;;;4961132;28;20467;-83
2023/12/28 00:11:06;;;;;;;1.30;1.05;;;2.90;99.90;;;;;;4961031;28;20274;-81
2023/12/28 00:13:31;;;;;;;3.47;2.40;;;3.10;99.90;;;;;;4977786;28;20283;-78
2023/12/28 00:15:57;;;;;;;2.63;1.90;;;3.00;99.90;;;;;;4996894;28;20203;-81
2023/12/28 00:18:22;;;;;;;4.50;1.97;;;2.90;99.90;;;;;;4971430;28;20621;-84
2023/12/28 00:20:48;;;;;;;4.30;1.50;;;2.90;99.90;;;;;;4967849;28;20203;-80
2023/12/28 00:23:13;;;;;;;3.27;2.20;;;2.90;99.90;;;;;;4963716;28;20203;-82
2023/12/28 00:25:39;;;;;;;5.27;4.00;;;2.90;99.90;;;;;;4980511;28;20680;-83
2023/12/28 00:28:05;;;;;;;3.47;1.77;;;3.00;99.90;;;;;;4985259;28;20274;-83
2023/12/28 00:30:32;;;;;;;3.87;2.73;;;3.10;99.90;;;;;;4986583;28;20597;-81
2023/12/28 00:32:57;;;;;;;7.30;2.80;;;3.00;99.90;;;;;;4969488;28;20222;-79
2023/12/28 00:35:23;;;;;;;7.63;2.77;;;3.10;99.90;;;;;;4980897;28;20191;-85
2023/12/28 00:37:49;;;;;;;5.93;2.27;;;3.10;99.90;;;;;;4982863;28;20194;-79
2023/12/28 00:40:14;;;;;;;4.60;2.03;;;3.00;99.90;;;;;;4968049;28;20203;-85
2023/12/28 00:42:40;;;;;;;1.80;1.00;;;3.00;99.90;;;;;;4963538;28;20199;-85
2023/12/28 00:45:07;;;;;;;1.80;1.40;;;2.80;99.90;;;;;;4983425;28;20229;-79
2023/12/28 00:47:33;;;;;;;5.40;1.65;;;2.60;99.90;;;;;;4979962;28;20822;-85
2023/12/28 00:49:59;;;;;;;1.57;1.27;;;2.60;99.90;;;;;;4981909;28;20205;-82
2023/12/28 00:52:25;;;;;;;2.83;1.05;;;2.60;99.90;;;;;;4983756;28;20214;-84
2023/12/28 00:54:50;;;;;;;3.10;2.07;;;2.70;99.90;;;;;;4978954;28;20674;-81
2023/12/28 00:57:16;;;;;;;5.90;2.73;;;2.90;99.90;;;;;;4967300;28;20198;-79
2023/12/28 00:59:42;;;;;;;4.43;2.73;;;3.00;99.90;;;;;;4976170;28;20207;-78
2023/12/28 01:02:07;;;;;;;8.10;2.80;;;3.10;99.90;;;;;;4971838;28;20207;-81
2023/12/28 01:04:33;;;;;;;2.93;1.30;;;3.10;99.90;;;;;;4980452;28;20521;-79
2023/12/28 01:07:01;;;;;;;1.23;1.03;;;3.00;99.90;;;;;;4969028;28;20195;-80
2023/12/28 01:09:27;;;;;;;3.45;2.10;;;2.80;99.90;;;;;;4982990;28;20187;-79
2023/12/28 01:11:53;;;;;;;4.07;3.30;;;2.70;99.90;;;;;;4969214;28;20958;-83
2023/12/28 01:14:18;;;;;;;9.30;2.57;;;2.80;99.90;;;;;;4969881;28;21160;-83
2023/12/28 01:16:44;;;;;;;2.80;2.03;;;2.90;99.90;;;;;;4967571;28;20193;-82
2023/12/28 01:19:09;;;;;;;3.43;2.13;;;2.90;99.90;;;;;;4967410;28;20191;-82
2023/12/28 01:21:35;;;;;;;5.40;3.10;;;3.00;99.90;;;;;;4956938;28;20246;-85
2023/12/28 01:24:01;;;;;;;2.50;1.90;;;3.00;99.90;;;;;;4963712;28;20238;-86
2023/12/28 01:26:26;;;;;;;4.27;1.83;;;2.90;99.90;;;;;;4970795;28;20221;-85
2023/12/28 01:28:52;;;;;;;2.40;1.93;;;2.90;99.90;;;;;;5002372;28;20251;-81
2023/12/28 01:31:17;;;;;;;2.20;0.93;;;2.90;99.90;;;;;;4996192;28;20203;-83
2023/12/28 01:33:43;;;;;;;3.27;1.93;;;2.70;99.90;;;;;;4987873;28;20187;-83
2023/12/28 01:36:19;;;;;;;1.13;1.00;;;2.50;99.90;;;;;;4978419;28;20993;-82
2023/12/28 01:38:45;;;;;;;1.05;0.95;;;2.60;99.90;;;;;;4966884;28;20179;-84
2023/12/28 01:41:12;;;;;;;1.02;0.85;;;2.80;99.90;;;;;;4969249;28;21709;-84
2023/12/28 01:43:38;;;;;;;2.10;0.77;;;2.90;99.90;;;;;;4982794;28;20184;-84
2023/12/28 01:46:04;;;;;;;2.30;0.90;;;3.10;99.90;;;;;;4983421;28;20678;-87
2023/12/28 01:48:30;;;;;;;0.68;0.68;;;3.50;99.90;;;;;;4980981;28;20206;-83
2023/12/28 01:50:56;;;;;;;0.47;0.43;;;3.50;99.90;;;;;;4977214;28;20221;-79
2023/12/28 01:53:22;;;;;;;1.70;1.00;;;3.80;99.90;;;;;;4983257;28;20210;-83
2023/12/28 01:55:48;;;;;;;1.25;0.57;;;3.90;99.90;;;;;;5001593;28;20426;-78
2023/12/28 01:58:14;;;;;;;1.67;1.10;;;4.00;99.90;;;;;;4975893;28;20536;-86
2023/12/28 02:00:40;;;;;;;2.10;0.87;;;4.10;99.90;;;;;;4979234;28;20228;-85
2023/12/28 02:03:07;;;;;;;3.95;0.90;;;4.20;99.90;;;;;;4957198;28;20213;-83
2023/12/28 02:05:33;;;;;;;1.05;0.90;;;4.30;99.90;;;;;;4960060;28;20191;-85
2023/12/28 02:07:59;;;;;;;2.15;0.75;;;4.40;99.90;;;;;;4984029;28;20187;-82
2023/12/28 02:10:25;;;;;;;1.33;1.17;;;4.60;99.90;;;;;;4984336;28;20258;-81
2023/12/28 02:12:53;;;;;;;1.40;0.73;;;5.30;99.90;;;;;;4990669;28;20324;-81
2023/12/28 02:15:19;;;;;;;0.70;0.70;;;5.50;99.90;;;;;;4966348;28;20191;-85
2023/12/28 02:17:56;;;;;;;2.38;1.33;;;5.40;99.90;;;;;;4975938;28;20717;-84
2023/12/28 02:20:23;;;;;;;1.33;1.17;;;5.40;99.90;;;;;;4997589;28;20246;-79
2023/12/28 02:22:49;;;;;;;0.70;0.70;;;5.40;99.90;;;;;;4992188;28;20305;-84
2023/12/28 02:25:15;;;;;;;1.08;0.70;;;5.50;99.90;;;;;;4981912;28;20191;-84
2023/12/28 02:27:49;;;;;;;1.07;0.90;;;5.60;99.90;;;;;;4985388;28;20276;-85
2023/12/28 02:30:17;;;;;;;1.50;0.98;;;5.80;99.90;;;;;;4986720;28;20187;-82
2023/12/28 02:33:15;;;;;;;1.33;0.70;;;5.80;99.90;;;;;;4984869;28;20219;-87
2023/12/28 02:35:52;;;;;;;2.08;0.73;;;6.20;99.90;;;;;;4964668;28;20198;-84
2023/12/28 02:38:18;;;;;;;0.85;0.65;;;6.60;99.90;;;;;;4960501;28;20933;-82
2023/12/28 02:40:45;;;;;;;1.00;0.90;;;7.00;99.90;;;;;;4971989;28;20574;-87
2023/12/28 02:43:12;;;;;;;2.35;1.30;;;7.00;99.90;;;;;;4984971;28;20225;-86
2023/12/28 02:45:38;;;;;;;0.80;0.80;;;7.10;99.90;;;;;;4973669;28;20183;-85
2023/12/28 02:48:04;;;;;;;4.88;1.50;;;7.10;99.90;;;;;;4955666;28;20252;-83
2023/12/28 02:50:30;;;;;;;0.65;0.40;;;7.30;99.90;;;;;;4966440;28;20194;-82
2023/12/28 02:52:56;;;;;;;3.33;1.67;;;7.40;99.90;;;;;;4968408;28;20211;-84
2023/12/28 02:55:22;;;;;;;1.30;0.80;;;8.50;99.90;;;;;;4966145;28;20252;-80
2023/12/28 02:57:50;;;;;;;1.47;0.93;;;7.60;99.90;;;;;;4978220;28;20199;-84
2023/12/28 03:00:15;;;;;;;1.20;1.00;;;7.60;99.90;;;;;;4982826;28;20469;-83
2023/12/28 03:02:41;;;;;;;6.70;1.10;;;7.70;99.90;;;;;;4961982;28;20222;-86
2023/12/28 03:05:07;;;;;;;4.53;0.70;;;7.80;99.90;;;;;;4966551;28;20195;-83
2023/12/28 03:07:33;;;;;;;3.75;0.98;;;7.80;99.90;;;;;;4973917;28;20187;-80
2023/12/28 03:09:59;;;;;;;1.02;0.88;;;7.90;99.90;;;;;;4980689;28;20198;-82
2023/12/28 03:12:24;;;;;;;0.73;0.50;;;8.00;99.90;;;;;;4957974;28;20206;-85
2023/12/28 03:14:50;;;;;;;3.30;0.70;;;8.00;99.90;;;;;;4971321;28;20516;-83
2023/12/28 03:17:16;;;;;;;2.07;0.67;;;8.00;99.90;;;;;;4978549;28;20219;-85
2023/12/28 03:19:41;;;;;;;0.97;0.87;;;8.00;99.90;;;;;;4971472;28;20219;-81
2023/12/28 03:22:07;;;;;;;2.03;0.97;;;8.00;99.90;;;;;;4968698;28;20211;-82
2023/12/28 03:24:32;;;;;;;0.67;0.63;;;8.00;99.90;;;;;;4979276;28;20195;-82
2023/12/28 03:26:58;;;;;;;2.17;0.80;;;8.10;99.90;;;;;;4980572;28;20188;-81
2023/12/28 03:29:24;;;;;;;1.23;0.90;;;8.30;99.90;;;;;;4963199;28;20293;-81
2023/12/28 03:31:50;;;;;;;0.80;0.55;;;8.30;99.90;;;;;;4965606;28;20345;-83
2023/12/28 03:34:16;;;;;;;2.20;0.70;;;8.30;99.90;;;;;;4963589;28;20195;-83
2023/12/28 03:36:41;;;;;;;1.50;1.33;;;8.40;99.90;;;;;;4978127;28;20195;-77
2023/12/28 03:39:08;;;;;;;1.47;0.93;;;8.40;99.90;;;;;;4990486;28;20191;-87
2023/12/28 03:41:33;;;;;;;1.02;0.70;;;8.40;99.90;;;;;;4995292;28;20238;-80
2023/12/28 03:43:59;;;;;;;0.80;0.70;;;8.50;99.90;;;;;;4990969;28;20195;-87
2023/12/28 03:46:25;;;;;;;0.60;0.50;;;8.70;99.90;;;;;;4983553;28;20187;-79
2023/12/28 03:48:51;;;;;;;1.63;0.80;;;8.70;99.90;;;;;;4985090;28;20176;-86
2023/12/28 03:51:16;;;;;;;1.07;0.97;;;8.50;99.90;;;;;;4967133;28;20256;-83
2023/12/28 03:53:42;;;;;;;0.90;0.77;;;8.50;99.90;;;;;;4973587;28;20488;-84
2023/12/28 03:56:17;;;;;;;0.70;0.47;;;8.50;99.90;;;;;;4963079;28;20319;-85
2023/12/28 03:58:42;;;;;;;1.67;0.63;;;8.60;99.90;;;;;;4978253;28;20475;-85
2023/12/28 04:01:09;;;;;;;2.50;1.10;;;8.60;99.90;;;;;;4990364;28;20636;-79
2023/12/28 04:03:35;;;;;;;1.45;0.80;;;8.50;99.90;;;;;;4963574;28;20971;-83
2023/12/28 04:06:00;;;;;;;1.37;1.27;;;8.30;99.90;;;;;;4977502;28;20190;-82
2023/12/28 04:08:25;;;;;;;1.20;1.10;;;8.20;99.90;;;;;;4971509;28;20199;-82
2023/12/28 04:10:52;;;;;;;1.17;0.83;;;8.20;99.90;;;;;;4962184;28;20314;-83
2023/12/28 04:13:17;;;;;;;0.65;0.60;;;8.20;99.90;;;;;;4971499;28;20211;-79
2023/12/28 04:15:43;;;;;;;0.80;0.80;;;8.40;99.90;;;;;;4980404;28;20552;-83
2023/12/28 04:18:08;;;;;;;1.30;0.80;;;8.60;99.90;;;;;;4983060;28;20202;-84
2023/12/28 04:20:34;;;;;;;0.97;0.80;;;8.70;99.90;;;;;;4961831;28;20673;-84
2023/12/28 04:22:59;;;;;;;1.50;0.83;;;8.80;99.90;;;;;;4976707;28;20203;-82
2023/12/28 04:25:25;;;;;;;1.63;0.80;;;8.80;99.90;;;;;;4979107;28;20209;-84
2023/12/28 04:27:50;;;;;;;3.03;1.37;;;8.90;99.90;;;;;;4981153;28;20245;-86
2023/12/28 04:30:16;;;;;;;0.80;0.50;;;9.10;99.90;;;;;;4964151;28;20324;-82
2023/12/28 04:32:41;;;;;;;0.77;0.60;;;9.10;99.90;;;;;;4974471;28;20872;-84
2023/12/28 04:35:07;;;;;;;0.70;0.63;;;9.20;99.90;;;;;;4950051;28;20192;-85
2023/12/28 04:37:32;;;;;;;1.20;0.60;;;9.40;99.90;;;;;;4963742;28;20213;-82
2023/12/28 04:39:58;;;;;;;1.03;0.67;;;9.80;99.90;;;;;;4980045;28;20218;-82
2023/12/28 04:42:24;;;;;;;0.80;0.60;;;10.10;99.90;;;;;;4980886;28;20214;-86
2023/12/28 04:44:49;;;;;;;2.57;1.07;;;10.30;99.90;;;;;;4963142;28;20278;-83
2023/12/28 04:47:15;;;;;;;1.40;1.10;;;10.40;99.90;;;;;;4978409;28;20227;-84
2023/12/28 04:49:40;;;;;;;0.90;0.60;;;10.60;99.90;;;;;;4965737;28;20568;-85
2023/12/28 04:52:06;;;;;;;0.93;0.67;;;10.90;99.90;;;;;;4973382;28;20207;-82
2023/12/28 04:54:33;;;;;;;1.10;0.93;;;11.00;99.90;;;;;;4971223;28;20211;-86
2023/12/28 04:56:58;;;;;;;0.98;0.70;;;10.80;99.90;;;;;;4965565;28;20244;-84
2023/12/28 04:59:24;;;;;;;0.80;0.63;;;10.80;99.90;;;;;;4974062;28;20500;-80
2023/12/28 05:01:49;;;;;;;1.60;1.20;;;11.00;99.90;;;;;;4994591;28;20226;-84
2023/12/28 05:04:15;;;;;;;1.93;0.50;;;11.10;99.90;;;;;;4977255;28;20671;-83
2023/12/28 05:06:40;;;;;;;8.00;1.30;;;11.10;99.90;;;;;;4969523;28;20627;-85
2023/12/28 05:09:06;;;;;;;0.97;0.70;;;11.00;99.90;;;;;;4970461;28;20202;-86
2023/12/28 05:11:31;;;;;;;0.50;0.40;;;11.10;99.90;;;;;;4967472;28;21061;-84
2023/12/28 05:13:57;;;;;;;1.80;0.67;;;11.30;99.90;;;;;;4964059;28;20187;-80
2023/12/28 05:16:22;;;;;;;1.60;0.70;;;11.20;99.90;;;;;;4963382;28;20209;-82
2023/12/28 05:18:48;;;;;;;2.57;0.83;;;11.20;99.90;;;;;;5000091;28;20250;-84
2023/12/28 05:21:14;;;;;;;0.70;0.70;;;11.20;99.90;;;;;;4964038;28;20213;-86
2023/12/28 05:23:40;;;;;;;0.93;0.52;;;11.10;99.90;;;;;;4966033;28;20188;-84
2023/12/28 05:26:06;;;;;;;0.60;0.60;;;11.20;99.90;;;;;;4971592;28;20198;-88
2023/12/28 05:28:32;;;;;;;0.57;0.57;;;11.20;99.90;;;;;;4971419;28;20175;-84
2023/12/28 05:31:01;;;;;;;1.55;0.65;;;11.10;99.90;;;;;;4978057;28;20462;-83
2023/12/28 05:33:26;;;;;;;0.70;0.50;;;11.00;99.90;;;;;;4987686;28;20228;-83
2023/12/28 05:35:52;;;;;;;0.97;0.83;;;10.90;99.90;;;;;;4987896;28;21173;-81
2023/12/28 05:38:17;;;;;;;0.83;0.60;;;10.90;99.90;;;;;;4989051;28;20191;-80
2023/12/28 05:40:44;;;;;;;0.90;0.63;;;10.80;99.90;;;;;;4979200;28;20223;-79
2023/12/28 05:43:10;;;;;;;0.90;0.85;;;10.70;99.90;;;;;;4972142;28;20206;-81
2023/12/28 05:45:35;;;;;;;0.57;0.57;;;10.70;99.90;;;;;;4993514;28;20618;-83
2023/12/28 05:48:01;;;;;;;0.87;0.40;;;10.70;99.90;;;;;;4972901;28;20529;-84
2023/12/28 05:50:26;;;;;;;1.93;0.73;;;10.70;99.90;;;;;;4984838;28;20187;-83
2023/12/28 05:52:52;;;;;;;0.67;0.60;;;10.80;99.90;;;;;;4962755;28;20211;-85
2023/12/28 05:55:17;;;;;;;0.53;0.50;;;10.80;99.90;;;;;;4985007;28;20194;-82
2023/12/28 05:57:44;;;;;;;2.10;0.63;;;10.80;99.90;;;;;;4986700;28;20270;-86
2023/12/28 06:00:10;;;;;;;1.83;1.08;;;10.70;99.90;;;;;;4991684;28;20294;-82
2023/12/28 06:02:35;;;;;;;0.80;0.70;;;10.70;99.90;;;;;;4966573;28;20207;-82
2023/12/28 06:05:01;;;;;;;0.93;0.60;;;10.70;99.90;;;;;;4989068;28;20192;-84
2023/12/28 06:07:27;;;;;;;1.13;0.60;;;10.70;99.90;;;;;;4992149;28;20187;-77
2023/12/28 06:09:52;;;;;;;1.63;1.00;;;10.70;99.90;;;;;;4998383;28;20701;-80
2023/12/28 06:12:17;;;;;;;0.50;0.40;;;10.60;99.90;;;;;;4991893;28;20246;-86
2023/12/28 06:14:43;;;;;;;3.60;0.77;;;10.70;99.90;;;;;;4990353;28;20187;-84
2023/12/28 06:17:08;;;;;;;4.40;0.90;;;10.70;99.90;;;;;;4987632;28;20198;-81
2023/12/28 06:19:34;;;;;;;0.60;0.53;;;10.70;99.90;;;;;;4987712;28;20944;-82
2023/12/28 06:21:59;;;;;;;3.03;0.77;;;10.80;99.90;;;;;;4983718;28;20277;-86
2023/12/28 06:24:25;;;;;;;1.17;0.60;;;10.80;99.90;;;;;;4978335;28;20187;-81
2023/12/28 06:26:50;;;;;;;1.47;0.80;;;10.70;99.90;;;;;;4972643;28;20187;-83
2023/12/28 06:29:16;;;;;;;1.80;0.70;;;10.70;99.90;;;;;;4987338;28;20195;-85
2023/12/28 06:31:41;;;;;;;0.70;0.53;;;10.70;99.90;;;;;;4973050;28;20791;-79
2023/12/28 06:34:07;;;;;;;1.27;0.80;;;10.60;99.90;;;;;;4968879;28;20612;-81
2023/12/28 06:36:33;;;;;;;0.60;0.50;;;10.80;99.90;;;;;;4984661;28;20219;-79
2023/12/28 06:38:59;;;;;;;1.57;0.80;;;10.50;99.90;;;;;;4986473;28;20777;-81
2023/12/28 06:41:25;;;;;;;1.30;1.08;;;10.40;99.90;;;;;;4983786;28;20548;-86
2023/12/28 06:43:51;;;;;;;0.90;0.90;;;10.40;99.90;;;;;;4965037;28;20191;-82
2023/12/28 06:46:18;;;;;;;0.73;0.70;;;10.30;99.90;;;;;;4976997;28;20183;-80
2023/12/28 06:48:44;;;;;;;1.70;0.77;;;10.20;99.90;;;;;;4983507;28;20191;-86
2023/12/28 06:51:21;;;;;;;1.00;0.63;;;10.00;99.90;;;;;;4976828;28;20212;-84
2023/12/28 06:53:48;;;;;;;1.05;0.60;;;9.80;99.90;;;;;;4975487;28;20311;-81
2023/12/28 06:56:14;;;;;;;1.23;0.93;;;9.70;99.90;;;;;;4969682;28;21299;-84
2023/12/28 06:58:40;;;;;;;0.80;0.52;;;9.50;99.90;;;;;;4976926;28;20830;-82
2023/12/28 07:01:06;;;;;;;0.60;0.60;;;9.40;99.90;;;;;;4991247;28;20214;-82
2023/12/28 07:03:32;;;;;;;0.80;0.80;;;9.30;99.90;;;;;;4983359;28;20207;-81
2023/12/28 07:05:59;;;;;;;1.40;0.80;;;9.10;99.90;;;;;;4962206;28;22506;-82
2023/12/28 07:08:24;;;;;;;0.43;0.43;;;8.90;99.90;;;;;;4967597;28;20304;-87
2023/12/28 07:10:50;;;;;;;0.80;0.80;;;8.80;99.90;;;;;;4983357;28;20282;-84
2023/12/28 07:13:15;;;;;;;1.37;0.73;;;8.80;99.90;;;;;;4956134;28;20214;-82
2023/12/28 07:15:41;;;;;;;0.63;0.53;;;8.80;99.90;;;;;;4988216;28;20277;-82
2023/12/28 07:18:06;;;;;;;2.07;1.10;;;8.80;99.90;;;;;;4971900;28;20244;-83
2023/12/28 07:20:32;;;;;;;2.50;0.70;;;8.90;99.90;;;;;;4963566;28;20216;-86
2023/12/28 07:22:57;;;;;;;0.80;0.80;;;8.90;99.90;;;;;;4981864;28;20224;-87
2023/12/28 07:25:23;;;;;;;4.80;0.70;;;9.00;99.90;;;;;;4960622;28;20984;-82
2023/12/28 07:27:48;;;;;;;1.03;0.80;;;9.00;99.90;;;;;;4984707;28;20692;-82
2023/12/28 07:30:16;;;;;;;3.03;1.30;;;9.00;99.90;;;;;;4980764;28;20225;-82
2023/12/28 07:32:42;;;;;;;1.30;1.10;;;9.10;99.90;;;;;;4967202;28;20215;-84
2023/12/28 07:35:07;;;;;;;2.33;1.10;;;9.10;99.90;;;;;;4973044;28;20202;-84
2023/12/28 07:37:33;;;;;;;1.50;0.80;;;8.90;99.90;;;;;;4958486;28;20221;-84
2023/12/28 07:39:58;;;;;;;1.03;0.83;;;8.80;99.90;;;;;;4962007;28;20584;-86
2023/12/28 07:42:24;;;;;;;1.67;1.30;;;8.60;99.90;;;;;;4976202;28;20212;-84
2023/12/28 07:44:49;;;;;;;0.90;0.80;;;8.50;99.90;;;;;;4960865;28;20907;-84
2023/12/28 07:47:15;;;;;;;1.00;0.80;;;8.40;99.90;;;;;;4962183;28;20183;-80
2023/12/28 07:49:41;;;;;;;1.97;0.77;;;8.30;99.90;;;;;;4971170;28;20826;-87
2023/12/28 07:52:07;;;;;;;6.23;1.80;;;8.30;99.90;;;;;;4963920;28;21179;-80
2023/12/28 07:54:32;;;;;;;2.47;1.13;;;8.30;99.90;;;;;;4959564;28;20198;-88
2023/12/28 07:56:59;;;;;;;2.80;1.40;;;8.30;99.90;;;;;;4956964;28;20189;-83
2023/12/28 07:59:25;;;;;;;1.40;1.30;;;8.20;99.90;;;;;;4963681;28;20633;-81
2023/12/28 08:01:50;;;;;;;0.83;0.70;;;8.20;99.90;;;;;;4974792;28;20215;-85
2023/12/28 08:04:16;;;;;;;1.90;1.10;;;8.20;99.90;;;;;;4966507;28;20175;-81
2023/12/28 08:06:42;;;;;;;1.27;0.97;;;8.20;99.90;;;;;;4976583;28;20244;-83
2023/12/28 08:09:08;;;;;;;1.10;0.97;;;8.20;99.90;;;;;;4977412;28;20171;-86
2023/12/28 08:11:34;;;;;;;1.35;0.98;;;7.70;99.90;;;;;;4966786;28;21213;-86
2023/12/28 08:14:00;;;;;;;0.93;0.90;;;8.00;99.90;;;;;;4966702;28;20231;-83
2023/12/28 08:16:26;;;;;;;1.23;0.83;;;8.00;99.90;;;;;;4962835;28;20339;-85
2023/12/28 08:18:52;;;;;;;0.60;0.50;;;8.10;99.90;;;;;;4981235;28;20649;-87
2023/12/28 08:21:17;;;;;;;3.03;0.90;;;8.10;99.90;;;;;;4962685;28;20498;-85
2023/12/28 08:23:44;;;;;;;2.50;2.30;;;8.10;99.90;;;;;;4994798;28;20206;-81
2023/12/28 08:26:10;;;;;;;2.10;1.67;;;8.10;99.90;;;;;;4963951;28;20778;-86
2023/12/28 08:28:36;;;;;;;2.10;1.52;;;8.20;99.90;;;;;;4982243;28;20209;-84
2023/12/28 08:31:01;;;;;;;2.07;1.83;;;8.30;99.90;;;;;;4971905;28;20184;-87
2023/12/28 08:33:27;;;;;;;1.50;1.00;;;8.40;99.90;;;;;;4979401;28;20210;-82
2023/12/28 08:35:52;;;;;;;2.70;1.07;;;8.80;99.90;;;;;;4966684;28;20259;-85
2023/12/28 08:38:18;;;;;;;3.07;1.40;;;8.60;99.90;;;;;;4957914;28;20216;-83
2023/12/28 08:40:46;;;;;;;2.30;1.33;;;8.50;99.90;;;;;;4953320;28;20216;-82
2023/12/28 08:43:12;;;;;;;2.40;1.05;;;8.50;99.90;;;;;;4970934;28;20233;-86
2023/12/28 08:45:38;;;;;;;2.17;1.33;;;8.40;99.90;;;;;;4972070;28;20188;-81
2023/12/28 08:48:05;;;;;;;8.57;1.05;;;8.30;99.90;;;;;;5014073;28;20212;-81
2023/12/28 08:50:30;;;;;;;1.65;1.40;;;8.30;99.90;;;;;;4991956;28;20223;-82
2023/12/28 08:52:56;;;;;;;3.33;0.83;;;8.30;99.90;;;;;;5007265;28;20289;-81
2023/12/28 08:55:22;;;;;;;1.33;0.97;;;8.30;99.90;;;;;;4984031;28;20187;-82
2023/12/28 08:57:47;;;;;;;2.20;1.73;;;10.20;99.90;;;;;;4951820;28;20291;-83
2023/12/28 09:00:17;;;;;;;1.77;1.40;;;8.50;99.90;;;;;;4967189;28;20268;-83
2023/12/28 09:02:43;;;;;;;1.13;1.00;;;8.70;99.90;;;;;;4954391;28;20286;-85
2023/12/28 09:05:09;;;;;;;1.80;1.40;;;8.60;99.90;;;;;;4958961;28;20559;-84
2023/12/28 09:07:38;;;;;;;1.27;0.95;;;8.60;99.90;;;;;;4958360;28;20212;-85
2023/12/28 09:10:04;;;;;;;2.05;1.05;;;8.80;99.90;;;;;;4950294;28;20203;-84
2023/12/28 09:12:30;;;;;;;2.05;1.48;;;9.00;99.90;;;;;;4960050;28;20221;-82
2023/12/28 09:14:55;;;;;;;2.90;1.27;;;9.10;99.90;;;;;;4964330;28;20199;-87
2023/12/28 09:17:22;;;;;;;1.60;1.20;;;9.00;99.90;;;;;;4965297;28;21862;-87
2023/12/28 09:19:48;;;;;;;1.45;0.95;;;8.90;99.90;;;;;;4963270;28;20219;-87
2023/12/28 09:22:14;;;;;;;1.20;0.93;;;8.80;99.90;;;;;;4978039;28;20230;-81
2023/12/28 09:24:39;;;;;;;3.37;1.50;;;8.80;99.90;;;;;;4969624;28;20191;-85
2023/12/28 09:27:05;;;;;;;0.70;0.70;;;8.80;99.90;;;;;;4964550;28;20199;-83
2023/12/28 09:29:31;;;;;;;1.45;1.10;;;8.90;99.90;;;;;;4970105;28;20168;-81
2023/12/28 09:31:56;;;;;;;1.43;0.90;;;9.00;99.90;;;;;;4995002;28;20268;-82
2023/12/28 09:34:22;;;;;;;1.43;0.90;;;9.10;99.90;;;;;;4972281;28;20217;-85
2023/12/28 09:36:47;;;;;;;1.93;1.17;;;9.20;99.90;;;;;;4975535;28;20239;-87
2023/12/28 09:39:13;;;;;;;2.07;1.27;;;9.30;99.90;;;;;;4976993;28;20221;-84
2023/12/28 09:41:48;;;;;;;1.30;1.10;;;9.30;99.90;;;;;;4960335;28;20704;-85
2023/12/28 09:44:15;;;;;;;3.05;1.13;;;9.30;99.90;;;;;;4956675;28;20500;-86
2023/12/28 09:46:46;;;;;;;1.20;0.77;;;9.30;99.90;;;;;;4957238;28;20241;-87
2023/12/28 09:49:11;;;;;;;1.10;1.00;;;9.50;99.90;;;;;;4976663;28;20183;-87
2023/12/28 09:51:37;;;;;;;0.70;0.60;;;9.60;99.90;;;;;;4960935;28;20195;-84
2023/12/28 09:54:06;;;;;;;1.50;0.77;;;9.60;99.90;;;;;;4974618;28;20187;-87
2023/12/28 09:56:33;;;;;;;1.30;1.00;;;9.80;99.90;;;;;;4975235;28;21885;-87
2023/12/28 09:58:59;;;;;;;0.95;0.88;;;9.80;99.90;;;;;;4979279;28;20207;-85
2023/12/28 10:01:26;;;;;;;2.67;0.93;;;9.90;99.90;;;;;;4960123;28;20788;-83
2023/12/28 10:03:51;;;;;;;0.90;0.63;;;10.00;99.90;;;;;;4976004;28;20807;-87
2023/12/28 10:06:17;;;;;;;1.10;0.70;;;9.90;99.90;;;;;;4973443;28;20191;-84
2023/12/28 10:08:50;;;;;;;0.90;0.40;;;9.90;99.90;;;;;;4981383;28;20267;-85
2023/12/28 10:11:17;;;;;;;0.80;0.70;;;9.80;99.90;;;;;;4964757;28;20183;-83
2023/12/28 10:13:43;;;;;;;1.02;0.75;;;9.80;99.90;;;;;;4979104;28;20223;-83
2023/12/28 10:16:11;;;;;;;1.17;1.08;;;9.90;99.90;;;;;;4962591;28;20218;-83
2023/12/28 10:18:40;;;;;;;2.67;1.00;;;9.80;99.90;;;;;;4981159;28;20621;-86
2023/12/28 10:21:05;;;;;;;3.45;1.80;;;9.90;99.90;;;;;;4980630;28;20218;-89
2023/12/28 10:23:32;;;;;;;23.33;8.20;;;10.00;99.90;;;;;;4953210;28;20293;-88
2023/12/28 10:25:58;;;;;;;3.08;2.30;;;10.00;99.90;;;;;;4970307;28;20640;-86
2023/12/28 10:28:24;;;;;;;5.10;2.70;;;10.00;99.90;;;;;;4972402;28;20282;-80
2023/12/28 10:30:55;;;;;;;0.95;0.90;;;10.00;99.90;;;;;;4959240;28;20226;-89
2023/12/28 10:33:20;;;;;;;1.05;0.60;;;10.00;99.90;;;;;;4979244;28;20237;-81
2023/12/28 10:35:46;;;;;;;31.33;11.97;;;10.00;99.90;;;;;;4966592;28;20194;-84
2023/12/28 10:38:18;;;;;;;1.67;1.00;;;10.20;99.90;;;;;;4994218;28;21326;-80
2023/12/28 10:40:48;;;;;;;0.73;0.73;;;10.20;99.90;;;;;;4993578;28;20230;-82
2023/12/28 10:43:19;;;;;;;1.70;0.80;;;10.30;99.90;;;;;;4996629;28;20233;-86
2023/12/28 10:45:51;;;;;;;0.95;0.75;;;10.40;99.90;;;;;;5009125;28;20202;-81
2023/12/28 10:48:36;;;;;;;0.88;0.50;;;10.40;99.90;;;;;;5010682;28;20183;-81
2023/12/28 10:51:04;;;;;;;1.83;0.88;;;10.30;99.90;;;;;;4996114;28;20186;-80
2023/12/28 10:53:32;;;;;;;5.38;1.02;;;11.80;99.90;;;;;;5009567;28;20199;-84
2023/12/28 10:56:26;;;;;;;2.83;0.95;;;10.20;99.90;;;;;;4981238;28;20230;-83
2023/12/28 10:59:03;;;;;;;1.40;0.70;;;10.20;99.90;;;;;;4985007;28;20187;-84
2023/12/28 11:01:33;;;;;;;0.70;0.52;;;10.30;99.90;;;;;;4992964;28;20245;-83
2023/12/28 11:04:18;;;;;;;2.05;0.80;;;10.30;99.90;;;;;;4993011;28;20973;-84
2023/12/28 11:06:46;;;;;;;5.50;1.10;;;10.30;99.90;;;;;;4981297;28;23547;-85
2023/12/28 11:09:12;;;;;;;1.95;1.02;;;10.20;99.90;;;;;;4982579;28;20187;-80
2023/12/28 11:11:38;;;;;;;5.97;2.00;;;10.10;99.90;;;;;;4982429;28;20720;-84
2023/12/28 11:14:04;;;;;;;6.77;2.57;;;10.00;99.90;;;;;;4967381;28;20518;-84
2023/12/28 11:16:32;;;;;;;9.10;2.90;;;10.30;99.90;;;;;;4962015;28;20580;-81
2023/12/28 11:18:58;;;;;;;1.88;1.10;;;10.30;99.90;;;;;;4984404;28;20695;-83
2023/12/28 11:21:25;;;;;;;3.83;1.83;;;10.40;99.90;;;;;;4972176;28;20299;-81
2023/12/28 11:23:51;;;;;;;3.92;2.22;;;10.30;99.90;;;;;;4962524;28;20285;-84
2023/12/28 11:26:18;;;;;;;9.98;4.60;;;10.50;99.90;;;;;;4986678;28;20267;-88
2023/12/28 11:28:44;;;;;;;5.10;2.30;;;10.40;99.90;;;;;;4985993;28;20878;-82
2023/12/28 11:31:11;;;;;;;2.83;0.87;;;10.50;99.90;;;;;;4988912;28;20201;-87
2023/12/28 11:33:47;;;;;;;7.55;3.20;;;10.40;99.90;;;;;;4976148;28;20206;-88
2023/12/28 11:36:25;;;;;;;4.35;2.53;;;11.70;99.90;;;;;;4971346;28;20190;-86
2023/12/28 11:38:54;;;;;;;0.50;0.40;;;11.00;99.90;;;;;;4964498;28;20190;-84
2023/12/28 11:41:24;;;;;;;4.13;2.25;;;10.90;99.90;;;;;;4969615;28;20211;-83
2023/12/28 11:43:54;;;;;;;0.85;0.65;;;10.90;99.90;;;;;;4990898;28;20208;-88
2023/12/28 11:46:25;;;;;;;0.60;0.60;;;10.80;99.90;;;;;;4994121;27;20202;-79
2023/12/28 11:48:50;;;;;;;1.02;0.50;;;10.70;99.90;;;;;;4968407;28;20219;-82
2023/12/28 11:51:17;;;;;;;2.83;0.43;;;10.70;99.90;;;;;;4982856;28;20663;-83
2023/12/28 11:53:48;;;;;;;0.52;0.32;;;10.50;99.90;;;;;;4963449;28;20315;-88
2023/12/28 11:56:16;;;;;;;0.40;0.40;;;10.60;99.90;;;;;;4970479;28;20755;-85
2023/12/28 11:58:44;;;;;;;1.77;0.73;;;10.70;99.90;;;;;;4972024;28;20191;-85
2023/12/28 12:01:09;;;;;;;1.27;0.82;;;10.50;99.90;;;;;;4984880;28;20215;-81
2023/12/28 12:03:35;;;;;;;2.50;0.93;;;10.40;99.90;;;;;;4990406;28;20274;-83
2023/12/28 12:06:00;;;;;;;1.00;0.47;;;10.30;99.90;;;;;;4986913;28;20221;-86
2023/12/28 12:08:26;;;;;;;0.43;0.40;;;10.40;99.90;;;;;;4987694;28;20217;-87
2023/12/28 12:11:06;;;;;;;2.53;0.90;;;10.30;99.90;;;;;;4987304;28;20199;-83
2023/12/28 12:13:32;;;;;;;0.70;0.63;;;11.20;99.90;;;;;;4964325;28;20218;-84
2023/12/28 12:15:59;;;;;;;2.57;1.37;;;10.30;99.90;;;;;;4987383;28;21305;-83
2023/12/28 12:18:25;;;;;;;1.25;1.10;;;10.00;99.90;;;;;;4981437;28;20191;-80
2023/12/28 12:20:50;;;;;;;2.35;0.70;;;9.30;99.90;;;;;;4986155;28;20275;-80
2023/12/28 12:23:16;;;;;;;2.93;1.70;;;10.20;99.90;;;;;;4971956;28;20237;-82
2023/12/28 12:25:42;;;;;;;1.00;0.73;;;10.30;99.90;;;;;;4998427;28;20271;-79
2023/12/28 12:28:08;;;;;;;1.70;0.93;;;10.20;99.90;;;;;;4983775;28;20255;-79
2023/12/28 12:30:35;;;;;;;0.55;0.50;;;10.30;99.90;;;;;;4976675;28;20192;-85
2023/12/28 12:33:01;;;;;;;0.88;0.52;;;10.20;99.90;;;;;;4983409;28;20211;-84
2023/12/28 12:35:28;;;;;;;2.67;1.67;;;10.20;99.90;;;;;;4980948;28;20232;-82
2023/12/28 12:37:54;;;;;;;1.42;0.75;;;10.20;99.90;;;;;;4961132;28;20206;-82
2023/12/28 12:40:20;;;;;;;1.10;0.70;;;10.20;99.90;;;;;;4971614;28;20232;-85
2023/12/28 12:42:54;;;;;;;4.18;1.42;;;10.30;99.90;;;;;;4990976;28;20214;-85
2023/12/28 12:45:21;;;;;;;1.92;1.00;;;10.30;99.90;;;;;;4966283;28;20187;-83
2023/12/28 12:47:47;;;;;;;1.98;1.33;;;10.40;99.90;;;;;;4975404;28;20187;-80
2023/12/28 12:50:12;;;;;;;0.80;0.67;;;10.40;99.90;;;;;;4975885;28;20202;-84